Time;durP1;ratioP1;P1;durP2;ratioP2;P2;SDS_P1;SDS_P2;PMS_P1;PMS_P2;Temp;Humidity;BMP_temperature;BMP_pressure;BME280_temperature;BME280_humidity;BME280_pressure;Samples;Min_cycle;Max_cycle;Signal;HPM_P1;HPM_P2
2020/12/28 00:01:57;;;;;;;0.70;0.52;;;4.80;99.90;;;;;;5094473;28;20106;-72
2020/12/28 00:04:23;;;;;;;0.90;0.75;;;4.90;99.90;;;;;;5094679;28;20020;-72
2020/12/28 00:06:48;;;;;;;0.68;0.60;;;4.90;99.90;;;;;;5094739;28;20360;-73
2020/12/28 00:09:15;;;;;;;1.20;0.63;;;4.90;99.90;;;;;;5094587;28;20024;-72
2020/12/28 00:11:41;;;;;;;0.95;0.88;;;4.90;99.90;;;;;;5094237;28;20056;-72
2020/12/28 00:14:06;;;;;;;0.93;0.80;;;4.90;99.90;;;;;;5094544;28;20024;-73
2020/12/28 00:16:32;;;;;;;1.35;0.82;;;4.90;99.90;;;;;;5093938;28;20066;-72
2020/12/28 00:18:58;;;;;;;0.80;0.80;;;4.90;99.90;;;;;;5094471;28;20024;-73
2020/12/28 00:21:25;;;;;;;0.68;0.68;;;4.90;99.90;;;;;;5094336;28;20449;-72
2020/12/28 00:23:51;;;;;;;1.05;0.68;;;4.90;99.90;;;;;;5094139;28;20420;-72
2020/12/28 00:26:16;;;;;;;0.75;0.70;;;5.00;99.90;;;;;;5094399;28;20063;-73
2020/12/28 00:28:42;;;;;;;1.50;0.68;;;4.90;99.90;;;;;;5093757;28;20016;-72
2020/12/28 00:31:09;;;;;;;1.10;0.95;;;4.90;99.90;;;;;;5094285;28;20036;-72
2020/12/28 00:33:34;;;;;;;1.70;0.80;;;4.80;99.90;;;;;;5094269;28;20024;-72
2020/12/28 00:36:00;;;;;;;1.02;0.60;;;4.80;99.90;;;;;;5093082;28;20036;-72
2020/12/28 00:38:25;;;;;;;0.50;0.50;;;4.90;99.90;;;;;;5093009;28;20074;-72
2020/12/28 00:40:51;;;;;;;1.42;0.70;;;4.80;99.90;;;;;;5093469;28;20047;-72
2020/12/28 00:43:17;;;;;;;1.08;0.75;;;4.80;99.90;;;;;;5094156;28;20462;-72
2020/12/28 00:45:42;;;;;;;1.85;0.90;;;4.80;99.90;;;;;;5093831;28;20481;-72
2020/12/28 00:48:08;;;;;;;1.13;1.00;;;4.80;99.90;;;;;;5093830;28;20024;-72
2020/12/28 00:50:33;;;;;;;0.70;0.70;;;4.80;99.90;;;;;;5093819;28;20488;-72
2020/12/28 00:52:59;;;;;;;0.70;0.70;;;4.80;99.90;;;;;;5094080;28;20024;-72
2020/12/28 00:55:24;;;;;;;0.80;0.80;;;4.70;99.90;;;;;;5093467;28;20031;-72
2020/12/28 00:57:50;;;;;;;1.33;0.80;;;4.70;99.90;;;;;;5094025;28;20104;-72
2020/12/28 01:00:15;;;;;;;0.82;0.82;;;4.70;99.90;;;;;;5093938;28;20085;-72
2020/12/28 01:02:41;;;;;;;0.77;0.77;;;4.70;99.90;;;;;;5093935;28;20480;-72
2020/12/28 01:05:06;;;;;;;0.93;0.93;;;4.80;99.90;;;;;;5093676;28;20024;-72
2020/12/28 01:07:32;;;;;;;0.68;0.68;;;4.80;99.90;;;;;;5092741;28;20074;-72
2020/12/28 01:09:57;;;;;;;0.63;0.60;;;4.80;99.90;;;;;;5092496;28;20050;-71
2020/12/28 01:12:23;;;;;;;1.33;0.90;;;4.70;99.90;;;;;;5093311;28;20024;-72
2020/12/28 01:14:48;;;;;;;0.80;0.80;;;4.70;99.90;;;;;;5093894;28;20039;-72
2020/12/28 01:17:14;;;;;;;0.90;0.80;;;4.70;99.90;;;;;;5093849;28;20024;-72
2020/12/28 01:19:39;;;;;;;1.27;1.02;;;4.70;99.90;;;;;;5093189;28;20102;-72
2020/12/28 01:22:05;;;;;;;1.38;1.10;;;4.70;99.90;;;;;;5094304;28;20075;-72
2020/12/28 01:24:31;;;;;;;1.15;1.05;;;4.60;99.90;;;;;;5097466;28;20043;-72
2020/12/28 01:26:56;;;;;;;1.48;1.20;;;4.60;99.90;;;;;;5097677;28;20069;-72
2020/12/28 01:29:22;;;;;;;2.15;1.23;;;4.60;99.90;;;;;;5097624;28;20472;-72
2020/12/28 01:31:47;;;;;;;1.33;1.23;;;4.60;99.90;;;;;;5097589;28;20020;-72
2020/12/28 01:34:13;;;;;;;1.30;1.20;;;4.60;99.90;;;;;;5096960;28;20434;-72
2020/12/28 01:36:38;;;;;;;1.70;1.20;;;4.60;99.90;;;;;;5097495;28;20035;-72
2020/12/28 01:39:04;;;;;;;2.47;1.40;;;4.50;99.90;;;;;;5097170;28;20054;-72
2020/12/28 01:41:30;;;;;;;2.30;1.40;;;4.50;99.90;;;;;;5097338;28;20027;-72
2020/12/28 01:43:55;;;;;;;1.52;1.30;;;4.50;99.90;;;;;;5097112;28;20020;-72
2020/12/28 01:46:23;;;;;;;1.20;0.93;;;4.50;99.90;;;;;;5097299;28;20063;-72
2020/12/28 01:48:49;;;;;;;1.20;1.00;;;4.50;99.90;;;;;;5097231;28;20419;-72
2020/12/28 01:51:15;;;;;;;1.17;0.75;;;4.60;99.90;;;;;;5096904;28;20020;-72
2020/12/28 01:53:42;;;;;;;0.75;0.73;;;4.60;99.90;;;;;;5096654;28;20027;-72
2020/12/28 01:56:07;;;;;;;2.75;1.60;;;4.60;99.90;;;;;;5097165;28;20047;-73
2020/12/28 01:58:33;;;;;;;2.60;1.20;;;4.60;99.90;;;;;;5095656;28;20461;-70
2020/12/28 02:00:59;;;;;;;2.08;1.40;;;4.60;99.90;;;;;;5097027;28;20028;-72
2020/12/28 02:03:26;;;;;;;1.10;1.00;;;4.60;99.90;;;;;;5095845;28;20020;-73
2020/12/28 02:05:52;;;;;;;1.13;0.93;;;4.60;99.90;;;;;;5096691;28;20051;-71
2020/12/28 02:08:18;;;;;;;1.70;1.20;;;4.60;99.90;;;;;;5096390;28;20024;-73
2020/12/28 02:10:44;;;;;;;2.28;1.40;;;4.60;99.90;;;;;;5096847;28;20020;-72
2020/12/28 02:13:10;;;;;;;2.20;1.48;;;4.60;99.90;;;;;;5096809;28;20106;-72
2020/12/28 02:15:35;;;;;;;3.20;1.33;;;4.60;99.90;;;;;;5096787;28;20024;-72
2020/12/28 02:18:01;;;;;;;1.40;1.17;;;4.60;99.90;;;;;;5096715;28;20520;-73
2020/12/28 02:20:27;;;;;;;1.33;1.10;;;4.60;99.90;;;;;;5096053;28;20028;-72
2020/12/28 02:22:52;;;;;;;0.85;0.80;;;4.60;99.90;;;;;;5094793;28;20024;-72
2020/12/28 02:25:18;;;;;;;1.27;0.90;;;4.60;99.90;;;;;;5094798;28;20028;-71
2020/12/28 02:27:44;;;;;;;0.70;0.60;;;4.60;99.90;;;;;;5095062;28;20108;-72
2020/12/28 02:30:09;;;;;;;1.20;0.90;;;4.60;99.90;;;;;;5096482;28;20028;-72
2020/12/28 02:32:35;;;;;;;0.95;0.95;;;4.60;99.90;;;;;;5094549;28;20111;-72
2020/12/28 02:35:00;;;;;;;0.80;0.80;;;4.60;99.90;;;;;;5096091;28;20039;-71
2020/12/28 02:37:26;;;;;;;3.25;1.25;;;4.60;99.90;;;;;;5096349;28;20035;-72
2020/12/28 02:39:52;;;;;;;0.65;0.65;;;4.60;99.90;;;;;;5095792;28;20040;-71
2020/12/28 02:42:17;;;;;;;1.98;1.17;;;4.60;99.90;;;;;;5095987;28;20024;-72
2020/12/28 02:44:43;;;;;;;2.53;1.13;;;4.60;99.90;;;;;;5096187;28;20027;-72
2020/12/28 02:47:08;;;;;;;1.10;0.93;;;4.60;99.90;;;;;;5096164;28;20020;-72
2020/12/28 02:49:34;;;;;;;1.48;1.02;;;4.60;99.90;;;;;;5095815;28;20479;-72
2020/12/28 02:51:59;;;;;;;1.00;0.80;;;4.60;99.90;;;;;;5095499;28;20031;-72
2020/12/28 02:54:25;;;;;;;0.93;0.80;;;4.60;99.90;;;;;;5095991;28;20059;-72
2020/12/28 02:56:50;;;;;;;0.70;0.70;;;4.60;99.90;;;;;;5094142;28;20036;-72
2020/12/28 02:59:16;;;;;;;0.98;0.82;;;4.60;99.90;;;;;;5095876;28;20020;-72
2020/12/28 03:01:41;;;;;;;3.83;0.88;;;4.60;99.90;;;;;;5095751;28;20028;-72
2020/12/28 03:04:07;;;;;;;0.50;0.50;;;4.60;99.90;;;;;;5094015;28;20597;-72
2020/12/28 03:06:33;;;;;;;0.85;0.68;;;4.60;99.90;;;;;;5095741;28;20020;-72
2020/12/28 03:08:58;;;;;;;0.80;0.80;;;4.60;99.90;;;;;;5095676;28;20369;-72
2020/12/28 03:11:24;;;;;;;1.05;0.60;;;4.60;99.90;;;;;;5095644;28;20077;-72
2020/12/28 03:13:50;;;;;;;1.00;0.80;;;4.60;99.90;;;;;;5095617;28;20047;-72
2020/12/28 03:16:16;;;;;;;0.90;0.70;;;4.60;99.90;;;;;;5095543;28;20030;-72
2020/12/28 03:18:41;;;;;;;2.15;0.90;;;4.60;99.90;;;;;;5095516;28;20384;-72
2020/12/28 03:21:07;;;;;;;1.20;0.90;;;4.60;99.90;;;;;;5095117;28;20058;-72
2020/12/28 03:23:33;;;;;;;1.05;0.90;;;4.60;99.90;;;;;;5095436;28;20027;-72
2020/12/28 03:25:59;;;;;;;1.23;1.00;;;4.60;99.90;;;;;;5094830;28;20025;-72
2020/12/28 03:28:24;;;;;;;2.60;0.82;;;4.60;99.90;;;;;;5095348;28;20026;-72
2020/12/28 03:30:50;;;;;;;1.00;0.90;;;4.60;99.90;;;;;;5095288;28;20028;-72
2020/12/28 03:33:16;;;;;;;0.85;0.70;;;4.60;99.90;;;;;;5094685;28;20024;-72
2020/12/28 03:35:42;;;;;;;1.45;1.00;;;4.60;99.90;;;;;;5095205;28;20502;-72
2020/12/28 03:38:08;;;;;;;0.80;0.80;;;4.60;99.90;;;;;;5095161;28;20028;-72
2020/12/28 03:40:33;;;;;;;1.33;1.13;;;4.60;99.90;;;;;;5094319;28;20044;-72
2020/12/28 03:42:59;;;;;;;1.40;0.90;;;4.60;99.90;;;;;;5094544;28;20073;-72
2020/12/28 03:45:25;;;;;;;1.92;1.00;;;4.60;99.90;;;;;;5094020;28;20024;-73
2020/12/28 03:47:50;;;;;;;0.80;0.80;;;4.70;99.90;;;;;;5095051;28;20385;-72
2020/12/28 03:50:16;;;;;;;1.55;0.85;;;4.60;99.90;;;;;;5094692;28;20032;-73
2020/12/28 03:52:41;;;;;;;0.63;0.63;;;4.60;99.90;;;;;;5094919;28;20042;-72
2020/12/28 03:55:07;;;;;;;0.63;0.63;;;4.60;99.90;;;;;;5094897;28;20046;-70
2020/12/28 03:57:33;;;;;;;0.90;0.90;;;4.60;99.90;;;;;;5094255;28;20020;-72
2020/12/28 03:59:59;;;;;;;0.60;0.60;;;4.60;99.90;;;;;;5094693;28;20050;-72
2020/12/28 04:02:24;;;;;;;0.90;0.80;;;4.70;99.90;;;;;;5094477;28;20028;-71
2020/12/28 04:04:50;;;;;;;0.70;0.70;;;4.80;99.90;;;;;;5094706;28;20072;-72
2020/12/28 04:07:16;;;;;;;2.30;0.93;;;4.90;99.90;;;;;;5094668;28;20023;-72
2020/12/28 04:09:41;;;;;;;0.82;0.70;;;4.90;99.90;;;;;;5093442;28;20031;-72
2020/12/28 04:12:07;;;;;;;1.67;0.55;;;4.90;99.90;;;;;;5094077;28;20027;-71
2020/12/28 04:14:32;;;;;;;0.80;0.80;;;4.80;99.90;;;;;;5092730;28;20020;-72
2020/12/28 04:16:58;;;;;;;0.77;0.52;;;4.80;99.90;;;;;;5093057;28;20025;-72
2020/12/28 04:19:23;;;;;;;0.55;0.55;;;4.90;99.90;;;;;;5094226;28;20379;-72
2020/12/28 04:21:49;;;;;;;0.70;0.70;;;4.90;99.90;;;;;;5094376;28;20086;-72
2020/12/28 04:24:16;;;;;;;0.50;0.50;;;5.00;99.90;;;;;;5093840;28;20032;-72
2020/12/28 04:26:43;;;;;;;0.50;0.50;;;5.00;99.90;;;;;;5094367;28;20457;-72
2020/12/28 04:29:10;;;;;;;2.60;0.60;;;5.00;99.90;;;;;;5094348;28;20062;-72
2020/12/28 04:31:36;;;;;;;0.65;0.57;;;5.00;99.90;;;;;;5094310;28;20024;-72
2020/12/28 04:34:01;;;;;;;0.68;0.60;;;5.00;99.90;;;;;;5094024;28;20043;-72
2020/12/28 04:36:27;;;;;;;1.42;0.80;;;5.00;99.90;;;;;;5093703;28;20024;-72
2020/12/28 04:38:53;;;;;;;0.73;0.60;;;5.00;99.90;;;;;;5093971;28;20036;-72
2020/12/28 04:41:19;;;;;;;0.50;0.50;;;5.00;99.90;;;;;;5094122;28;20020;-72
2020/12/28 04:43:44;;;;;;;1.23;0.60;;;5.00;99.90;;;;;;5094085;28;20138;-72
2020/12/28 04:46:10;;;;;;;0.55;0.50;;;5.00;99.90;;;;;;5093733;28;20350;-72
2020/12/28 04:48:37;;;;;;;0.85;0.50;;;4.90;99.90;;;;;;5094026;28;20042;-72
2020/12/28 04:51:03;;;;;;;1.20;0.60;;;5.00;99.90;;;;;;5092185;28;20024;-72
2020/12/28 04:53:30;;;;;;;0.50;0.50;;;4.90;99.90;;;;;;5093519;28;20465;-72
2020/12/28 04:55:56;;;;;;;0.70;0.70;;;4.90;99.90;;;;;;5094256;28;20021;-72
2020/12/28 04:58:21;;;;;;;0.63;0.63;;;4.90;99.90;;;;;;5098243;28;20028;-72
2020/12/28 05:00:54;;;;;;;0.57;0.57;;;4.90;99.90;;;;;;5096542;28;20073;-72
2020/12/28 05:03:24;;;;;;;0.73;0.70;;;4.90;99.90;;;;;;5098021;28;20038;-71
2020/12/28 05:05:50;;;;;;;1.02;0.80;;;4.90;99.90;;;;;;5098074;28;20073;-72
2020/12/28 05:08:19;;;;;;;1.00;0.70;;;4.90;99.90;;;;;;5097762;28;20024;-72
2020/12/28 05:10:45;;;;;;;0.80;0.70;;;4.90;99.90;;;;;;5097716;28;20069;-72
2020/12/28 05:13:12;;;;;;;2.50;0.77;;;4.90;99.90;;;;;;5097686;28;20074;-72
2020/12/28 05:15:55;;;;;;;0.60;0.60;;;4.90;99.90;;;;;;5097928;28;20016;-72
2020/12/28 05:18:20;;;;;;;0.77;0.73;;;4.90;99.90;;;;;;5097339;28;20477;-72
2020/12/28 05:20:48;;;;;;;1.10;0.90;;;4.90;99.90;;;;;;5096320;28;20085;-72
2020/12/28 05:23:15;;;;;;;0.70;0.60;;;4.90;99.90;;;;;;5096250;28;20016;-71
2020/12/28 05:25:44;;;;;;;1.00;0.80;;;4.90;99.90;;;;;;5097707;28;20350;-72
2020/12/28 05:28:16;;;;;;;1.17;0.95;;;4.80;99.90;;;;;;5097686;28;20028;-72
2020/12/28 05:30:44;;;;;;;0.85;0.85;;;4.80;99.90;;;;;;5097628;28;20028;-72
2020/12/28 05:33:10;;;;;;;0.68;0.68;;;4.90;99.90;;;;;;5097614;28;20031;-72
2020/12/28 05:35:36;;;;;;;0.63;0.63;;;4.90;99.90;;;;;;5097255;28;20050;-71
2020/12/28 05:38:03;;;;;;;2.20;0.70;;;4.80;99.90;;;;;;5097250;28;20028;-72
2020/12/28 05:40:28;;;;;;;0.70;0.70;;;4.90;99.90;;;;;;5096884;28;20040;-72
2020/12/28 05:42:56;;;;;;;0.85;0.60;;;4.80;99.90;;;;;;5097393;28;20470;-72
2020/12/28 05:45:22;;;;;;;0.60;0.60;;;4.90;99.90;;;;;;5097119;28;20020;-72
2020/12/28 05:47:53;;;;;;;0.88;0.70;;;4.90;99.90;;;;;;5097054;28;20035;-72
2020/12/28 05:50:24;;;;;;;0.60;0.60;;;4.90;99.90;;;;;;5097287;28;20028;-71
2020/12/28 05:52:56;;;;;;;1.75;0.80;;;4.80;99.90;;;;;;5097229;28;20020;-72
2020/12/28 05:55:24;;;;;;;1.27;0.70;;;4.80;99.90;;;;;;5095796;28;20481;-71
2020/12/28 05:57:50;;;;;;;0.60;0.60;;;4.80;99.90;;;;;;5095988;28;20047;-72
2020/12/28 06:00:18;;;;;;;0.60;0.60;;;4.80;99.90;;;;;;5097045;28;20485;-72
2020/12/28 06:02:43;;;;;;;0.60;0.60;;;4.80;99.90;;;;;;5097048;28;20471;-72
2020/12/28 06:05:11;;;;;;;0.60;0.60;;;4.80;99.90;;;;;;5096768;28;20020;-72
2020/12/28 06:07:37;;;;;;;1.15;0.80;;;4.80;99.90;;;;;;5096225;28;20017;-72
2020/12/28 06:10:04;;;;;;;0.68;0.68;;;4.70;99.90;;;;;;5096617;28;20035;-72
2020/12/28 06:12:30;;;;;;;0.82;0.70;;;4.70;99.90;;;;;;5096862;28;20024;-72
2020/12/28 06:14:56;;;;;;;3.50;0.73;;;4.70;99.90;;;;;;5096788;28;20100;-72
2020/12/28 06:17:32;;;;;;;1.20;0.60;;;4.60;99.90;;;;;;5094916;28;20024;-72
2020/12/28 06:20:00;;;;;;;1.00;0.70;;;4.60;99.90;;;;;;5096628;28;20457;-72
2020/12/28 06:22:26;;;;;;;0.70;0.70;;;4.60;99.90;;;;;;5096669;28;20024;-72
2020/12/28 06:24:58;;;;;;;3.20;0.80;;;4.70;99.90;;;;;;5096605;28;20362;-72
2020/12/28 06:27:28;;;;;;;0.77;0.52;;;4.70;99.90;;;;;;5094692;28;20030;-72
2020/12/28 06:30:05;;;;;;;1.98;0.75;;;4.70;99.90;;;;;;5095925;28;20032;-72
2020/12/28 06:32:30;;;;;;;0.80;0.80;;;4.70;99.90;;;;;;5096188;28;20434;-72
2020/12/28 06:35:02;;;;;;;0.88;0.70;;;4.80;99.90;;;;;;5094587;28;20028;-72
2020/12/28 06:37:28;;;;;;;0.95;0.75;;;4.70;99.90;;;;;;5095806;28;20051;-72
2020/12/28 06:39:58;;;;;;;1.00;0.90;;;4.70;99.90;;;;;;5094251;28;20121;-72
2020/12/28 06:42:24;;;;;;;1.27;0.90;;;4.70;99.90;;;;;;5094826;28;20016;-72
2020/12/28 06:44:49;;;;;;;3.83;0.80;;;4.70;99.90;;;;;;5096183;28;20123;-72
2020/12/28 06:47:17;;;;;;;1.00;0.90;;;4.70;99.90;;;;;;5095805;28;20020;-72
2020/12/28 06:49:43;;;;;;;1.00;1.00;;;4.70;99.90;;;;;;5095861;28;20016;-72
2020/12/28 06:52:09;;;;;;;1.50;1.30;;;4.70;99.90;;;;;;5095774;28;20069;-71
2020/12/28 06:54:35;;;;;;;1.40;1.30;;;4.70;99.90;;;;;;5094476;28;20039;-72
2020/12/28 06:57:03;;;;;;;1.48;1.20;;;4.70;99.90;;;;;;5095736;28;20099;-72
2020/12/28 06:59:29;;;;;;;1.83;1.45;;;4.70;99.90;;;;;;5095898;28;20033;-72
2020/12/28 07:01:57;;;;;;;1.35;1.23;;;4.70;99.90;;;;;;5095767;28;20021;-72
2020/12/28 07:04:23;;;;;;;1.65;1.30;;;4.60;99.90;;;;;;5094007;28;20044;-71
2020/12/28 07:06:56;;;;;;;1.20;1.15;;;4.60;99.90;;;;;;5095784;28;20472;-72
2020/12/28 07:09:21;;;;;;;1.35;1.25;;;4.70;99.90;;;;;;5094341;28;20035;-72
2020/12/28 07:11:47;;;;;;;1.23;1.23;;;4.60;99.90;;;;;;5095710;28;20377;-72
2020/12/28 07:14:12;;;;;;;2.05;1.67;;;4.70;99.90;;;;;;5095606;28;20113;-72
2020/12/28 07:16:38;;;;;;;3.30;1.60;;;4.60;99.90;;;;;;5093727;28;20031;-72
2020/12/28 07:19:04;;;;;;;3.13;2.00;;;4.60;99.90;;;;;;5093316;28;20035;-72
2020/12/28 07:21:30;;;;;;;3.88;2.60;;;4.50;99.90;;;;;;5094550;28;20465;-72
2020/12/28 07:23:56;;;;;;;3.65;2.67;;;4.60;99.90;;;;;;5095385;28;20140;-72
2020/12/28 07:26:22;;;;;;;3.65;2.60;;;4.60;99.90;;;;;;5095383;28;20058;-72
2020/12/28 07:28:48;;;;;;;3.97;3.00;;;4.60;99.90;;;;;;5094246;28;20030;-72
2020/12/28 07:31:13;;;;;;;5.82;2.50;;;4.50;99.90;;;;;;5095340;28;20081;-72
2020/12/28 07:33:48;;;;;;;3.25;2.15;;;4.50;99.90;;;;;;5095313;28;20426;-72
2020/12/28 07:36:15;;;;;;;3.50;2.30;;;4.50;99.90;;;;;;5095211;28;20020;-72
2020/12/28 07:38:44;;;;;;;2.20;2.00;;;4.50;99.90;;;;;;5094923;28;20020;-72
2020/12/28 07:41:20;;;;;;;3.00;2.35;;;4.60;99.90;;;;;;5094741;28;20440;-72
2020/12/28 07:43:55;;;;;;;2.35;2.15;;;4.50;99.90;;;;;;5094683;28;20345;-72
2020/12/28 07:46:44;;;;;;;3.78;2.60;;;4.40;99.90;;;;;;5095010;28;20016;-72
2020/12/28 07:49:29;;;;;;;3.58;3.00;;;4.40;99.90;;;;;;5094734;28;20016;-72
2020/12/28 07:52:12;;;;;;;14.05;6.75;;;4.40;99.90;;;;;;5093300;28;20384;-72
2020/12/28 07:54:46;;;;;;;11.90;6.70;;;4.30;99.90;;;;;;5094237;28;20030;-72
2020/12/28 07:57:17;;;;;;;13.43;7.35;;;4.40;99.90;;;;;;5094845;28;20457;-72
2020/12/28 08:00:08;;;;;;;8.88;5.75;;;4.40;99.90;;;;;;5094690;28;20043;-73
2020/12/28 08:02:49;;;;;;;14.27;7.63;;;4.40;99.90;;;;;;5094651;28;20024;-72
2020/12/28 08:05:18;;;;;;;10.95;6.60;;;4.50;99.90;;;;;;5094651;28;20398;-72
2020/12/28 08:07:44;;;;;;;10.30;6.43;;;4.60;99.90;;;;;;5094079;28;20043;-72
2020/12/28 08:10:10;;;;;;;7.50;4.85;;;4.60;99.90;;;;;;5094606;28;20465;-72
2020/12/28 08:12:40;;;;;;;6.03;3.83;;;4.70;99.90;;;;;;5094581;28;20427;-72
2020/12/28 08:15:05;;;;;;;7.18;5.05;;;5.00;99.90;;;;;;5094336;28;20486;-72
2020/12/28 08:17:31;;;;;;;4.70;3.78;;;5.20;99.90;;;;;;5094721;28;20251;-71
2020/12/28 08:20:07;;;;;;;5.30;4.20;;;5.20;99.90;;;;;;5094575;28;20103;-72
2020/12/28 08:22:33;;;;;;;4.32;3.50;;;5.40;99.90;;;;;;5092717;28;20054;-72
2020/12/28 08:25:00;;;;;;;4.15;3.15;;;5.50;99.90;;;;;;5094024;28;20016;-72
2020/12/28 08:27:29;;;;;;;3.10;2.80;;;5.50;99.90;;;;;;5093063;28;20346;-71
2020/12/28 08:29:55;;;;;;;5.00;3.35;;;5.60;99.90;;;;;;5093797;28;20023;-72
2020/12/28 08:32:20;;;;;;;4.80;3.22;;;5.60;99.90;;;;;;5094074;28;20369;-72
2020/12/28 08:35:04;;;;;;;10.32;3.47;;;5.70;99.90;;;;;;5094305;28;20024;-72
2020/12/28 08:37:29;;;;;;;;;;;5.90;99.90;;;;;;5094488;28;20016;-72
2020/12/28 08:39:55;;;;;;;6.55;3.15;;;6.00;99.90;;;;;;5093567;28;19915;-72
2020/12/28 08:42:36;;;;;;;4.65;3.50;;;6.40;99.90;;;;;;5093940;28;20094;-72
2020/12/28 08:45:02;;;;;;;4.35;3.03;;;7.10;99.90;;;;;;5093655;28;20028;-71
2020/12/28 08:47:29;;;;;;;4.25;3.17;;;7.40;99.90;;;;;;5092619;28;20050;-72
2020/12/28 08:49:55;;;;;;;3.13;2.50;;;7.30;99.90;;;;;;5094123;28;20043;-72
2020/12/28 08:52:22;;;;;;;4.80;3.20;;;7.40;99.90;;;;;;5094058;28;20024;-72
2020/12/28 08:54:57;;;;;;;3.05;2.45;;;7.00;99.90;;;;;;5092904;28;20019;-71
2020/12/28 08:57:27;;;;;;;3.22;2.92;;;6.70;99.90;;;;;;5092899;28;20400;-72
2020/12/28 08:59:54;;;;;;;3.38;3.05;;;6.50;99.90;;;;;;5093705;28;20052;-72
2020/12/28 09:02:21;;;;;;;6.85;3.50;;;6.30;99.90;;;;;;5093749;28;20439;-72
2020/12/28 09:04:48;;;;;;;3.95;3.15;;;6.40;99.90;;;;;;5093717;28;20012;-72
2020/12/28 09:07:14;;;;;;;3.30;3.00;;;6.90;99.90;;;;;;5093670;28;20020;-72
2020/12/28 09:09:41;;;;;;;4.13;3.22;;;6.80;99.90;;;;;;5093374;28;20020;-72
2020/12/28 09:12:07;;;;;;;4.82;3.38;;;6.60;99.90;;;;;;5093902;28;20043;-72
2020/12/28 09:14:33;;;;;;;36.55;5.55;;;6.30;99.90;;;;;;5093595;28;20020;-72
2020/12/28 09:16:59;;;;;;;3.90;3.13;;;6.10;99.90;;;;;;5075262;28;20051;-71
2020/12/28 09:19:24;;;;;;;4.43;2.55;;;5.90;99.90;;;;;;5093791;28;20055;-72
2020/12/28 09:21:50;;;;;;;3.60;2.58;;;5.70;99.90;;;;;;5093209;28;20028;-72
2020/12/28 09:24:15;;;;;;;8.23;2.75;;;5.50;99.90;;;;;;5093830;28;20091;-71
2020/12/28 09:26:41;;;;;;;3.58;2.17;;;5.50;99.90;;;;;;5093781;28;20024;-72
2020/12/28 09:29:07;;;;;;;2.75;2.13;;;5.50;99.90;;;;;;5093744;28;20095;-72
2020/12/28 09:31:32;;;;;;;2.25;2.00;;;5.60;99.90;;;;;;5093432;28;20088;-72
2020/12/28 09:33:58;;;;;;;1.55;1.45;;;5.80;99.90;;;;;;5093703;28;20034;-71
2020/12/28 09:36:23;;;;;;;13.93;2.30;;;5.90;99.90;;;;;;5093333;28;20108;-72
2020/12/28 09:38:49;;;;;;;2.88;1.40;;;6.00;99.90;;;;;;5092002;28;20492;-73
2020/12/28 09:41:15;;;;;;;1.58;1.08;;;6.70;99.90;;;;;;5091766;28;20031;-72
2020/12/28 09:43:41;;;;;;;1.77;1.10;;;7.30;99.90;;;;;;5095205;28;20476;-72
2020/12/28 09:46:08;;;;;;;4.00;1.20;;;8.80;99.90;;;;;;5097047;28;20461;-72
2020/12/28 09:48:34;;;;;;;0.95;0.82;;;10.80;99.90;;;;;;5095480;28;20028;-73
2020/12/28 09:51:00;;;;;;;1.58;1.10;;;12.40;99.90;;;;;;5097269;28;20024;-73
2020/12/28 09:53:25;;;;;;;1.10;0.98;;;13.10;99.90;;;;;;5078524;28;20031;-73
2020/12/28 09:55:51;;;;;;;1.50;0.88;;;12.50;99.90;;;;;;5097184;28;20024;-73
2020/12/28 09:58:17;;;;;;;1.88;1.70;;;12.20;99.90;;;;;;5096837;28;20027;-73
2020/12/28 10:00:42;;;;;;;1.15;1.05;;;12.90;99.90;;;;;;5096698;28;20024;-73
2020/12/28 10:03:08;;;;;;;1.73;1.35;;;12.80;99.90;;;;;;5096777;28;20103;-73
2020/12/28 10:05:35;;;;;;;3.22;0.90;;;12.00;99.90;;;;;;5096966;28;20024;-73
2020/12/28 10:08:01;;;;;;;4.07;1.00;;;12.60;99.90;;;;;;5096715;28;20023;-73
2020/12/28 10:10:26;;;;;;;1.58;0.75;;;12.40;99.90;;;;;;5096666;28;20032;-73
2020/12/28 10:12:52;;;;;;;2.45;0.80;;;12.70;99.90;;;;;;5096593;28;20050;-73
2020/12/28 10:15:18;;;;;;;0.98;0.90;;;12.20;99.90;;;;;;5096828;28;20071;-73
2020/12/28 10:18:24;;;;;;;1.33;0.80;;;11.40;99.90;;;;;;5095278;28;20028;-73
2020/12/28 10:20:50;;;;;;;2.70;0.75;;;12.00;99.90;;;;;;5096032;28;20064;-73
2020/12/28 10:23:16;;;;;;;2.30;0.90;;;12.30;99.90;;;;;;5094888;28;20020;-73
2020/12/28 10:25:41;;;;;;;2.53;0.90;;;12.60;99.90;;;;;;5096554;28;20017;-73
2020/12/28 10:28:07;;;;;;;1.98;0.75;;;12.70;99.90;;;;;;5096543;28;20028;-73
2020/12/28 10:30:37;;;;;;;2.38;0.90;;;12.80;99.90;;;;;;5095025;28;20039;-73
2020/12/28 10:33:03;;;;;;;4.07;0.80;;;11.90;99.90;;;;;;5096309;28;20024;-73
2020/12/28 10:35:28;;;;;;;2.70;0.80;;;12.40;99.90;;;;;;5096469;28;20126;-73
2020/12/28 10:37:55;;;;;;;1.52;0.75;;;12.70;99.90;;;;;;5096406;28;20053;-73
2020/12/28 10:40:21;;;;;;;1.02;0.93;;;12.40;99.90;;;;;;5095754;28;20040;-73
2020/12/28 10:42:47;;;;;;;1.55;0.90;;;11.60;99.90;;;;;;5096212;28;20024;-73
2020/12/28 10:45:12;;;;;;;5.30;1.20;;;10.20;99.90;;;;;;5095975;28;20031;-73
2020/12/28 10:47:38;;;;;;;2.17;0.85;;;9.40;99.90;;;;;;5094554;28;20028;-73
2020/12/28 10:50:03;;;;;;;2.78;0.80;;;8.70;99.90;;;;;;5095767;28;20105;-73
2020/12/28 10:52:29;;;;;;;1.20;0.82;;;8.20;99.90;;;;;;5096047;28;20020;-73
2020/12/28 10:54:54;;;;;;;5.07;1.17;;;7.90;99.90;;;;;;5095740;28;20065;-73
2020/12/28 10:57:20;;;;;;;5.13;1.58;;;7.50;99.90;;;;;;5095661;28;20075;-73
2020/12/28 10:59:45;;;;;;;2.67;0.93;;;7.30;99.90;;;;;;5095899;28;20031;-73
2020/12/28 11:02:11;;;;;;;1.90;0.93;;;7.10;99.90;;;;;;5094503;28;20036;-73
2020/12/28 11:04:36;;;;;;;2.33;1.13;;;6.90;99.90;;;;;;5095817;28;20027;-73
2020/12/28 11:07:02;;;;;;;2.88;1.20;;;7.20;99.90;;;;;;5095772;28;20354;-73
2020/12/28 11:09:27;;;;;;;2.03;1.13;;;7.80;99.90;;;;;;5095483;28;20530;-73
2020/12/28 11:11:53;;;;;;;2.13;1.10;;;8.70;99.90;;;;;;5094217;28;20036;-73
2020/12/28 11:14:20;;;;;;;1.55;0.85;;;8.30;99.90;;;;;;5094410;28;20131;-73
2020/12/28 11:16:47;;;;;;;2.80;1.00;;;7.70;99.90;;;;;;5093753;28;20020;-72
2020/12/28 11:19:12;;;;;;;1.58;0.70;;;7.50;99.90;;;;;;5095534;28;20031;-73
2020/12/28 11:21:38;;;;;;;2.83;0.82;;;7.30;99.90;;;;;;5095463;28;20024;-72
2020/12/28 11:24:03;;;;;;;2.53;1.00;;;7.40;99.90;;;;;;5095523;28;20081;-73
2020/12/28 11:26:32;;;;;;;3.65;0.95;;;7.20;99.90;;;;;;5095462;28;20499;-73
2020/12/28 11:28:59;;;;;;;0.90;0.85;;;7.20;99.90;;;;;;5095416;28;20534;-73
2020/12/28 11:31:25;;;;;;;1.40;0.80;;;7.30;99.90;;;;;;5095371;28;20039;-72
2020/12/28 11:33:51;;;;;;;3.88;0.70;;;7.30;99.90;;;;;;5095309;28;20465;-72
2020/12/28 11:36:17;;;;;;;1.63;0.70;;;7.20;99.90;;;;;;5094270;28;20032;-73
2020/12/28 11:38:44;;;;;;;1.92;0.95;;;7.20;99.90;;;;;;5095204;28;20026;-72
2020/12/28 11:41:11;;;;;;;1.05;0.90;;;7.10;99.90;;;;;;5093846;28;20036;-72
2020/12/28 11:43:37;;;;;;;5.22;0.98;;;7.10;99.90;;;;;;5095081;28;20020;-73
2020/12/28 11:46:02;;;;;;;0.95;0.80;;;7.20;99.90;;;;;;5093284;28;20024;-73
2020/12/28 11:48:28;;;;;;;2.13;0.95;;;7.10;99.90;;;;;;5093241;28;20027;-72
2020/12/28 11:50:53;;;;;;;5.25;1.40;;;7.00;99.90;;;;;;5094032;28;20058;-72
2020/12/28 11:53:19;;;;;;;2.60;1.13;;;7.00;99.90;;;;;;5093764;28;20374;-72
2020/12/28 11:56:17;;;;;;;2.92;1.02;;;7.10;99.90;;;;;;5093351;28;20036;-73
2020/12/28 11:58:34;;;;;;;1.67;0.80;;;7.20;99.90;;;;;;5093134;28;20020;-72
2020/12/28 12:01:01;;;;;;;2.92;1.20;;;7.00;99.90;;;;;;5094468;28;20024;-72
2020/12/28 12:03:28;;;;;;;2.30;0.80;;;6.90;99.90;;;;;;5094472;28;20016;-72
2020/12/28 12:05:56;;;;;;;2.28;0.90;;;6.80;99.90;;;;;;5094101;28;20377;-72
2020/12/28 12:08:22;;;;;;;1.55;0.95;;;6.70;99.90;;;;;;5094650;28;20024;-72
2020/12/28 12:10:49;;;;;;;2.83;1.02;;;6.60;99.90;;;;;;5092775;28;20161;-72
2020/12/28 12:13:14;;;;;;;2.15;1.13;;;6.60;99.90;;;;;;5093369;28;20016;-72
2020/12/28 12:15:43;;;;;;;1.20;0.93;;;6.60;99.90;;;;;;5094174;28;20028;-72
2020/12/28 12:18:08;;;;;;;2.20;1.38;;;6.70;99.90;;;;;;5094210;28;20479;-72
2020/12/28 12:20:34;;;;;;;2.40;0.88;;;6.70;99.90;;;;;;5094341;28;20020;-72
2020/12/28 12:22:59;;;;;;;2.25;1.10;;;6.70;99.90;;;;;;5094393;28;20500;-72
2020/12/28 12:25:25;;;;;;;3.38;0.90;;;6.80;99.90;;;;;;5094411;28;20031;-72
2020/12/28 12:27:50;;;;;;;3.28;1.10;;;6.70;99.90;;;;;;5094363;28;20024;-72
2020/12/28 12:30:16;;;;;;;3.85;1.60;;;6.70;99.90;;;;;;5094205;28;20042;-73
2020/12/28 12:32:41;;;;;;;3.53;1.70;;;6.80;99.90;;;;;;5093676;28;20027;-72
2020/12/28 12:35:07;;;;;;;4.35;1.30;;;7.10;99.90;;;;;;5094246;28;20032;-72
2020/12/28 12:37:32;;;;;;;2.03;1.23;;;7.30;99.90;;;;;;5094247;28;20031;-72
2020/12/28 12:39:58;;;;;;;1.55;1.13;;;7.60;99.90;;;;;;5075314;28;20075;-73
2020/12/28 12:42:25;;;;;;;0.95;0.82;;;7.70;99.90;;;;;;5093894;28;20350;-72
2020/12/28 12:44:50;;;;;;;2.22;0.98;;;7.90;99.90;;;;;;5092429;28;20016;-72
2020/12/28 12:47:18;;;;;;;1.55;1.17;;;7.70;99.90;;;;;;5093836;28;20027;-72
2020/12/28 12:49:43;;;;;;;3.88;0.98;;;7.60;99.90;;;;;;5094016;28;20070;-73
2020/12/28 12:52:18;;;;;;;2.97;1.10;;;7.60;99.90;;;;;;5094071;28;20385;-73
2020/12/28 12:54:44;;;;;;;1.85;1.05;;;7.40;99.90;;;;;;5092825;28;20482;-72